CheckWX is a tool to help pilots better visualize weather data.  It is not intended as a substitute for an official pre-flight weather briefing.

06:21:54 UTC

KLMT METAR
Crater Lake-Klamath Regional Airport
Klamath Falls, Oregon, USA
Current

29 mins ago

KLMT 070553Z AUTO 15008KT 10SM -RA SCT024 BKN034 OVC042 04/02 A2988 RMK AO2 SLP115 P0004 60004 T00440022 10078 20044 53001
Observed
Dec-7 @ 05:53 UTC
Wind
  • 150° at 8 KTS
Visibility
10 SM
Flight Rules
VFR
Conditions
Light Rain
Cloud Levels
  • Scattered at 2,400' AGL
  • Broken at 3,400' AGL
  • Overcast at 4,200' AGL
Temperature
C / 39°F
Dewpoint
C / 36°F
Humidity
87%
Altimeter
29.88" Hg
Pressure
1011.82 hPa
Current Rain
0.04"
Previous

1 hour ago

KLMT 070514Z AUTO 17009KT 7SM -RA BKN029 OVC037 05/02 A2987 RMK AO2 P0001 T00500017
Observed
Dec-7 @ 05:14 UTC
Wind
  • 170° at 9 KTS
Visibility
7 SM
Flight Rules
MVFR
Conditions
Light Rain
Cloud Levels
  • Broken at 2,900' AGL
  • Overcast at 3,700' AGL
Temperature
C / 41°F
Dewpoint
C / 36°F
Humidity
81%
Altimeter
29.87" Hg
Pressure
1011.52 hPa
Current Rain
0.01"
Previous

1 hour ago

KLMT 070453Z AUTO 15010KT 10SM -RA BKN035 OVC043 06/02 A2987 RMK AO2 RAB20 SLP109 P0000 T00560017
Observed
Dec-7 @ 04:53 UTC
Wind
  • 150° at 10 KTS
Visibility
10 SM
Flight Rules
VFR
Conditions
Light Rain
Cloud Levels
  • Broken at 3,500' AGL
  • Overcast at 4,300' AGL
Temperature
C / 43°F
Dewpoint
C / 36°F
Humidity
76%
Altimeter
29.87" Hg
Pressure
1011.52 hPa
Current Rain
0.01"